createdAt,value
2022-10-09T00:01:06.449Z,6.87
2022-10-09T00:03:35.391Z,3.93
2022-10-09T00:06:03.581Z,6.17
2022-10-09T00:08:32.070Z,3.47
2022-10-09T00:11:00.209Z,5.20
2022-10-09T00:13:28.408Z,4.47
2022-10-09T00:15:56.541Z,7.80
2022-10-09T00:18:25.705Z,4.23
2022-10-09T00:20:53.875Z,3.97
2022-10-09T00:23:22.174Z,7.27
2022-10-09T00:25:54.275Z,6.40
2022-10-09T00:28:23.466Z,7.10
2022-10-09T00:30:51.967Z,8.77
2022-10-09T00:33:20.326Z,10.83
2022-10-09T00:35:49.523Z,7.77
2022-10-09T00:38:18.091Z,12.37
2022-10-09T00:40:46.392Z,10.23
2022-10-09T00:43:17.523Z,9.50
2022-10-09T00:45:50.742Z,9.47
2022-10-09T00:48:20.543Z,7.50
2022-10-09T00:50:54.222Z,6.67
2022-10-09T00:53:24.770Z,5.23
2022-10-09T00:55:53.342Z,6.20
2022-10-09T00:58:21.777Z,6.33
2022-10-09T01:00:50.176Z,7.33
2022-10-09T01:03:19.891Z,7.00
2022-10-09T01:06:01.492Z,7.73
2022-10-09T01:08:32.756Z,3.83
2022-10-09T01:11:06.528Z,2.70
2022-10-09T01:13:38.388Z,4.93
2022-10-09T01:16:11.755Z,5.90
2022-10-09T01:18:44.132Z,5.43
2022-10-09T01:21:19.061Z,3.90
2022-10-09T01:24:12.554Z,4.53
2022-10-09T01:27:09.380Z,3.97
2022-10-09T01:29:40.232Z,4.27
2022-10-09T01:32:10.289Z,6.27
2022-10-09T01:34:40.502Z,4.97
2022-10-09T01:37:10.074Z,4.30
2022-10-09T01:39:38.880Z,5.03
2022-10-09T01:42:09.595Z,4.37
2022-10-09T01:44:38.121Z,4.17
2022-10-09T01:47:07.308Z,6.87
2022-10-09T01:49:42.870Z,3.30
2022-10-09T01:52:21.490Z,3.20
2022-10-09T01:54:58.863Z,7.03
2022-10-09T01:57:33.444Z,4.90
2022-10-09T02:00:05.175Z,3.33
2022-10-09T02:02:33.680Z,5.03
2022-10-09T02:05:02.608Z,4.07
2022-10-09T02:07:32.577Z,3.77
2022-10-09T02:10:01.227Z,5.67
2022-10-09T02:12:34.060Z,4.20
2022-10-09T02:15:02.237Z,5.10
2022-10-09T02:17:35.874Z,5.17
2022-10-09T02:20:10.227Z,3.43
2022-10-09T02:22:38.536Z,3.10
2022-10-09T02:25:08.080Z,6.20
2022-10-09T02:27:37.573Z,3.07
2022-10-09T02:30:08.739Z,3.27
2022-10-09T02:32:36.876Z,3.50
2022-10-09T02:35:05.219Z,2.70
2022-10-09T02:37:33.396Z,4.00
2022-10-09T02:40:01.566Z,3.33
2022-10-09T02:42:29.898Z,4.27
2022-10-09T02:44:59.072Z,4.17
2022-10-09T02:47:27.207Z,4.43
2022-10-09T02:49:56.672Z,11.83
2022-10-09T02:52:24.878Z,5.03
2022-10-09T02:54:53.119Z,5.57
2022-10-09T02:57:21.374Z,4.83
2022-10-09T02:59:49.610Z,4.60
2022-10-09T03:02:18.855Z,3.10
2022-10-09T03:04:47.050Z,4.67
2022-10-09T03:07:17.714Z,3.30
2022-10-09T03:09:45.922Z,6.47
2022-10-09T03:12:16.154Z,2.97
2022-10-09T03:14:44.399Z,4.27
2022-10-09T03:17:12.527Z,3.27
2022-10-09T03:19:41.652Z,5.50
2022-10-09T03:22:09.791Z,2.93
2022-10-09T03:24:37.961Z,2.27
2022-10-09T03:27:06.305Z,3.43
2022-10-09T03:29:34.511Z,2.67
2022-10-09T03:32:02.853Z,2.93
2022-10-09T03:34:31.255Z,4.33
2022-10-09T03:37:03.312Z,4.77
2022-10-09T03:39:31.574Z,3.70
2022-10-09T03:42:00.016Z,4.03
2022-10-09T03:44:28.175Z,4.33
2022-10-09T03:46:56.393Z,2.33
2022-10-09T03:49:24.570Z,4.37
2022-10-09T03:51:52.806Z,3.83
2022-10-09T03:54:21.983Z,3.90
2022-10-09T03:56:50.106Z,3.60
2022-10-09T03:59:18.316Z,3.53
2022-10-09T04:04:21.234Z,2.30
2022-10-09T04:06:49.597Z,4.00
2022-10-09T04:09:17.778Z,2.50
2022-10-09T04:11:45.947Z,3.77
2022-10-09T04:14:14.310Z,3.60
2022-10-09T04:16:42.659Z,2.60
2022-10-09T04:19:12.015Z,5.73
2022-10-09T04:21:41.165Z,2.77
2022-10-09T04:24:09.355Z,4.77
2022-10-09T04:26:37.550Z,3.93
2022-10-09T04:29:05.699Z,3.47
2022-10-09T04:31:34.236Z,2.60
2022-10-09T04:34:02.407Z,4.57
2022-10-09T04:36:30.595Z,2.87
2022-10-09T04:38:59.848Z,5.07
2022-10-09T04:41:27.988Z,3.37
2022-10-09T04:43:56.494Z,4.10
2022-10-09T04:46:24.960Z,3.17
2022-10-09T04:48:53.171Z,4.73
2022-10-09T04:51:21.457Z,2.00
2022-10-09T04:53:49.746Z,4.27
2022-10-09T04:56:21.368Z,2.70
2022-10-09T04:58:50.190Z,3.83
2022-10-09T05:01:20.724Z,3.00
2022-10-09T05:03:49.018Z,4.87
2022-10-09T05:06:17.884Z,3.97
2022-10-09T05:08:46.140Z,4.67
2022-10-09T05:11:18.504Z,6.03
2022-10-09T05:15:44.409Z,2.57
2022-10-09T05:18:12.743Z,4.10
2022-10-09T05:21:31.290Z,3.53
2022-10-09T05:23:59.420Z,4.10
2022-10-09T05:26:28.220Z,2.50
2022-10-09T05:28:56.800Z,4.27
2022-10-09T05:31:26.482Z,2.50
2022-10-09T05:33:54.906Z,4.00
2022-10-09T05:36:23.495Z,2.77
2022-10-09T05:41:30.624Z,3.27
2022-10-09T05:44:02.514Z,8.63
2022-10-09T05:46:30.787Z,4.07
2022-10-09T05:49:00.540Z,4.77
2022-10-09T05:51:30.442Z,4.33
2022-10-09T05:57:57.616Z,3.47
2022-10-09T06:00:25.831Z,2.67
2022-10-09T06:02:54.669Z,2.43
2022-10-09T06:05:23.173Z,3.23
2022-10-09T06:07:51.418Z,3.73
2022-10-09T06:10:19.717Z,4.60
2022-10-09T06:12:48.185Z,3.27
2022-10-09T06:15:18.001Z,4.87
2022-10-09T06:18:13.307Z,4.97
2022-10-09T06:20:41.839Z,3.17
2022-10-09T06:23:10.080Z,4.87
2022-10-09T06:25:38.320Z,4.23
2022-10-09T06:28:06.805Z,3.27
2022-10-09T06:30:38.491Z,4.30
2022-10-09T06:33:07.167Z,2.53
2022-10-09T06:35:37.111Z,3.30
2022-10-09T06:38:05.491Z,4.07
2022-10-09T06:40:53.626Z,4.57
2022-10-09T06:43:21.932Z,4.50
2022-10-09T06:46:08.656Z,5.23
2022-10-09T06:48:38.565Z,4.17
2022-10-09T06:54:24.804Z,6.47
2022-10-09T06:56:55.540Z,8.37
2022-10-09T06:59:23.742Z,9.00
2022-10-09T07:05:17.240Z,4.10
2022-10-09T07:07:45.125Z,6.33
2022-10-09T07:10:13.376Z,4.93
2022-10-09T07:12:41.313Z,5.90
2022-10-09T07:19:53.149Z,4.37
2022-10-09T07:22:24.835Z,5.67
2022-10-09T07:24:55.107Z,10.47
2022-10-09T08:14:53.617Z,8.77
2022-10-09T08:39:54.460Z,8.67
2022-10-09T08:47:07.762Z,8.20
2022-10-09T09:25:59.595Z,6.75
2022-10-09T09:42:45.254Z,9.93
2022-10-09T09:45:18.311Z,9.23
2022-10-09T09:51:57.218Z,8.75
2022-10-09T09:54:27.216Z,6.40
2022-10-09T09:59:41.840Z,4.90
2022-10-09T10:05:19.159Z,10.35
2022-10-09T10:07:49.920Z,8.48
2022-10-09T10:10:25.338Z,6.93
2022-10-09T10:13:00.578Z,9.32
2022-10-09T10:15:30.918Z,5.35
2022-10-09T10:18:01.343Z,10.95
2022-10-09T10:23:34.251Z,10.23
2022-10-09T10:26:07.331Z,8.63
2022-10-09T10:28:44.005Z,5.20
2022-10-09T10:31:19.815Z,9.65
2022-10-09T10:33:55.682Z,7.07
2022-10-09T10:36:25.510Z,8.35
2022-10-09T10:39:01.916Z,8.25
2022-10-09T10:41:34.665Z,7.43
2022-10-09T10:44:08.215Z,3.92
2022-10-09T10:46:42.503Z,6.20
2022-10-09T10:49:12.498Z,8.90
2022-10-09T10:51:51.835Z,5.88
2022-10-09T10:54:33.417Z,5.20
2022-10-09T10:57:09.059Z,3.97
2022-10-09T10:59:40.728Z,5.28
2022-10-09T11:02:41.253Z,9.70
2022-10-09T11:05:31.004Z,6.65
2022-10-09T11:08:16.578Z,6.68
2022-10-09T11:10:57.346Z,10.90
2022-10-09T11:13:29.867Z,6.47
2022-10-09T11:16:07.528Z,7.10
2022-10-09T11:19:02.391Z,8.40
2022-10-09T11:21:46.388Z,7.40
2022-10-09T11:25:31.905Z,6.50
2022-10-09T11:28:03.952Z,3.85
2022-10-09T11:30:38.191Z,4.78
2022-10-09T11:33:20.283Z,6.78
2022-10-09T11:35:53.047Z,7.07
2022-10-09T11:38:27.066Z,5.93
2022-10-09T11:40:57.636Z,5.10
2022-10-09T11:43:44.991Z,7.70
2022-10-09T11:46:20.974Z,5.32
2022-10-09T11:48:55.698Z,5.57
2022-10-09T11:51:31.212Z,8.52
2022-10-09T11:53:59.628Z,7.60
2022-10-09T11:56:33.124Z,3.38
2022-10-09T11:59:02.767Z,5.03
2022-10-09T12:01:33.941Z,4.40
2022-10-09T12:04:08.066Z,5.03
2022-10-09T12:06:47.488Z,4.90
2022-10-09T12:09:23.253Z,4.30
2022-10-09T12:12:03.406Z,3.92
2022-10-09T12:14:31.820Z,4.85
2022-10-09T12:17:00.543Z,4.72
2022-10-09T12:19:35.880Z,6.10
2022-10-09T12:22:07.080Z,6.15
2022-10-09T12:24:40.344Z,6.15
2022-10-09T12:27:18.487Z,6.10
2022-10-09T12:29:48.848Z,5.65
2022-10-09T12:32:24.207Z,4.35
2022-10-09T12:34:53.034Z,5.32
2022-10-09T12:37:22.725Z,3.97
2022-10-09T12:39:51.295Z,5.60
2022-10-09T12:42:23.903Z,6.05
2022-10-09T12:44:54.924Z,5.95
2022-10-09T12:47:26.613Z,5.47
2022-10-09T12:49:59.381Z,6.95
2022-10-09T12:52:27.839Z,5.53
2022-10-09T12:54:56.066Z,6.35
2022-10-09T12:57:28.045Z,4.22
2022-10-09T12:59:57.254Z,4.35
2022-10-09T13:02:25.519Z,5.22
2022-10-09T13:04:59.043Z,7.40
2022-10-09T13:07:30.134Z,7.47
2022-10-09T13:10:01.359Z,5.05
2022-10-09T13:12:32.672Z,5.78
2022-10-09T13:15:01.645Z,4.78
2022-10-09T13:20:25.564Z,5.63
2022-10-09T13:22:58.492Z,6.72
2022-10-09T13:25:28.187Z,6.60
2022-10-09T13:27:58.416Z,5.40
2022-10-09T13:30:28.129Z,4.18
2022-10-09T13:32:56.892Z,9.95
2022-10-09T13:35:25.060Z,7.40
2022-10-09T13:37:53.752Z,6.70
2022-10-09T13:40:22.274Z,3.72
2022-10-09T13:42:54.283Z,8.68
2022-10-09T13:45:23.875Z,4.05
2022-10-09T13:47:52.493Z,5.32
2022-10-09T13:50:20.927Z,4.38
2022-10-09T13:52:49.101Z,6.03
2022-10-09T13:55:17.605Z,6.82
2022-10-09T13:57:45.788Z,5.38
2022-10-09T14:00:14.654Z,5.78
2022-10-09T14:02:44.278Z,5.53
2022-10-09T14:05:12.546Z,3.15
2022-10-09T14:07:40.725Z,6.47
2022-10-09T14:10:09.443Z,6.30
2022-10-09T14:12:37.452Z,3.88
2022-10-09T14:15:06.292Z,5.40
2022-10-09T14:17:34.521Z,3.55
2022-10-09T14:20:03.919Z,4.72
2022-10-09T14:22:32.162Z,4.03
2022-10-09T14:24:59.990Z,3.17
2022-10-09T14:27:28.299Z,2.65
2022-10-09T14:29:57.364Z,3.38
2022-10-09T14:32:25.690Z,4.90
2022-10-09T14:34:53.780Z,5.20
2022-10-09T14:37:40.557Z,5.97
2022-10-09T14:40:10.037Z,4.47
2022-10-09T14:42:38.484Z,3.88
2022-10-09T14:45:07.193Z,3.63
2022-10-09T14:47:35.102Z,5.60
2022-10-09T14:50:03.301Z,3.08
2022-10-09T14:52:32.576Z,2.63
2022-10-09T14:55:00.566Z,2.78
2022-10-09T14:57:34.317Z,5.38
2022-10-09T15:00:03.969Z,7.07
2022-10-09T15:02:32.004Z,3.50
2022-10-09T15:05:00.027Z,9.07
2022-10-09T15:07:28.373Z,2.85
2022-10-09T15:09:57.906Z,5.70
2022-10-09T15:12:26.069Z,5.00
2022-10-09T15:14:54.338Z,4.65
2022-10-09T15:17:22.494Z,3.97
2022-10-09T15:19:50.671Z,5.60
2022-10-09T15:22:21.966Z,3.38
2022-10-09T15:24:50.718Z,7.82
2022-10-09T15:27:20.324Z,4.45
2022-10-09T15:29:48.686Z,4.13
2022-10-09T15:32:18.669Z,4.13
2022-10-09T15:34:46.814Z,3.80
2022-10-09T15:37:20.410Z,6.35
2022-10-09T15:39:48.695Z,2.28
2022-10-09T15:42:16.844Z,5.90
2022-10-09T15:44:46.040Z,3.95
2022-10-09T15:47:16.503Z,4.32
2022-10-09T15:49:46.556Z,3.10
2022-10-09T15:52:16.144Z,5.35
2022-10-09T15:54:44.221Z,3.67
2022-10-09T15:57:12.180Z,3.53
2022-10-09T15:59:42.317Z,3.38
2022-10-09T16:02:12.392Z,3.05
2022-10-09T16:04:40.722Z,6.65
2022-10-09T16:07:08.907Z,3.50
2022-10-09T16:09:37.622Z,3.22
2022-10-09T16:12:05.915Z,2.80
2022-10-09T16:14:34.137Z,2.90
2022-10-09T16:17:02.371Z,2.58
2022-10-09T16:19:31.590Z,2.47
2022-10-09T16:21:59.773Z,4.15
2022-10-09T16:24:28.131Z,4.72
2022-10-09T16:26:56.388Z,2.63
2022-10-09T16:29:25.310Z,2.30
2022-10-09T16:31:53.503Z,2.83
2022-10-09T16:34:21.714Z,3.05
2022-10-09T16:36:51.011Z,2.50
2022-10-09T16:39:18.972Z,5.07
2022-10-09T16:41:47.189Z,1.42
2022-10-09T16:44:16.885Z,3.58
2022-10-09T16:46:45.098Z,3.08
2022-10-09T16:49:21.263Z,3.15
2022-10-09T16:51:53.488Z,5.22
2022-10-09T16:54:21.718Z,3.10
2022-10-09T16:56:49.865Z,4.13
2022-10-09T16:59:20.583Z,4.10
2022-10-09T17:01:49.535Z,4.20
2022-10-09T17:04:17.598Z,2.53
2022-10-09T17:06:46.462Z,4.82
2022-10-09T17:09:16.168Z,3.58
2022-10-09T17:11:45.213Z,8.90
2022-10-09T17:14:13.942Z,3.20
2022-10-09T17:16:43.174Z,28.20
2022-10-09T17:19:11.737Z,10.02
2022-10-09T17:21:40.083Z,5.90
2022-10-09T17:24:08.549Z,5.38
2022-10-09T17:26:37.861Z,7.18
2022-10-09T17:29:06.189Z,4.80
2022-10-09T17:31:34.787Z,6.82
2022-10-09T17:34:05.219Z,6.53
2022-10-09T17:36:35.547Z,6.22
2022-10-09T17:39:04.126Z,6.18
2022-10-09T17:41:33.091Z,13.55
2022-10-09T17:44:02.459Z,25.80
2022-10-09T17:46:31.677Z,18.65
2022-10-09T17:49:00.246Z,16.42
2022-10-09T17:51:30.927Z,14.13
2022-10-09T17:54:01.079Z,10.70
2022-10-09T17:56:30.096Z,11.40
2022-10-09T17:58:59.551Z,10.65
2022-10-09T18:01:29.477Z,5.78
2022-10-09T18:03:57.787Z,6.53
2022-10-09T18:06:25.951Z,9.30
2022-10-09T18:08:55.463Z,6.93
2022-10-09T18:11:25.092Z,5.53
2022-10-09T18:13:53.267Z,5.32
2022-10-09T18:16:25.068Z,5.20
2022-10-09T18:18:54.411Z,6.50
2022-10-09T18:21:22.621Z,4.40
2022-10-09T18:23:50.785Z,4.35
2022-10-09T18:26:20.857Z,7.03
2022-10-09T18:28:49.152Z,10.82
2022-10-09T18:31:20.442Z,17.27
2022-10-09T18:33:48.750Z,21.15
2022-10-09T18:36:20.415Z,25.13
2022-10-09T18:38:49.231Z,32.53
2022-10-09T18:41:17.747Z,19.20
2022-10-09T18:43:46.142Z,17.07
2022-10-09T18:46:14.725Z,13.03
2022-10-09T18:48:43.272Z,8.87
2022-10-09T18:51:17.427Z,8.50
2022-10-09T18:53:51.063Z,11.30
2022-10-09T18:56:19.663Z,9.27
2022-10-09T18:58:50.391Z,10.63
2022-10-09T19:01:18.724Z,13.37
2022-10-09T19:03:49.978Z,13.93
2022-10-09T19:06:18.842Z,7.77
2022-10-09T19:08:48.515Z,5.50
2022-10-09T19:11:16.723Z,9.07
2022-10-09T19:13:45.617Z,7.83
2022-10-09T19:16:13.786Z,6.20
2022-10-09T19:18:42.162Z,6.63
2022-10-09T19:21:13.769Z,7.37
2022-10-09T19:23:42.734Z,7.00
2022-10-09T19:26:13.131Z,8.07
2022-10-09T19:28:41.373Z,9.70
2022-10-09T19:31:10.328Z,7.40
2022-10-09T19:33:39.013Z,9.13
2022-10-09T19:36:08.171Z,8.40
2022-10-09T19:38:36.590Z,7.67
2022-10-09T19:41:05.406Z,10.23
2022-10-09T19:43:35.153Z,8.63
2022-10-09T19:46:04.832Z,9.13
2022-10-09T19:48:33.016Z,10.30
2022-10-09T19:51:01.304Z,7.30
2022-10-09T19:53:29.489Z,9.07
2022-10-09T19:55:57.608Z,10.87
2022-10-09T19:58:25.947Z,9.50
2022-10-09T20:00:55.199Z,9.00
2022-10-09T20:03:23.380Z,10.50
2022-10-09T20:05:51.589Z,23.93
2022-10-09T20:08:19.695Z,22.17
2022-10-09T20:10:47.829Z,17.33
2022-10-09T20:13:16.149Z,23.47
2022-10-09T20:15:44.371Z,12.90
2022-10-09T20:18:13.585Z,13.63
2022-10-09T20:20:47.775Z,12.67
2022-10-09T20:23:16.352Z,9.43
2022-10-09T20:25:44.587Z,8.90
2022-10-09T20:28:13.147Z,15.03
2022-10-09T20:30:41.334Z,9.63
2022-10-09T20:33:09.790Z,10.93
2022-10-09T20:35:43.898Z,10.60
2022-10-09T20:38:12.061Z,9.67
2022-10-09T20:40:40.227Z,10.53
2022-10-09T20:43:08.354Z,12.40
2022-10-09T20:45:41.079Z,8.77
2022-10-09T20:48:09.451Z,11.43
2022-10-09T20:50:38.223Z,12.23
2022-10-09T20:53:09.813Z,13.60
2022-10-09T20:55:38.010Z,12.47
2022-10-09T20:58:06.168Z,12.23
2022-10-09T21:00:34.386Z,12.97
2022-10-09T21:03:02.556Z,9.80
2022-10-09T21:05:31.188Z,9.67
2022-10-09T21:07:59.402Z,8.33
2022-10-09T21:10:28.645Z,6.67
2022-10-09T21:12:56.912Z,6.57
2022-10-09T21:15:25.103Z,4.67
2022-10-09T21:17:53.433Z,4.63
2022-10-09T21:20:21.629Z,5.03
2022-10-09T21:22:50.174Z,4.73
2022-10-09T21:25:18.557Z,4.43
2022-10-09T21:27:48.059Z,2.67
2022-10-09T21:30:16.452Z,5.53
2022-10-09T21:32:44.922Z,3.97
2022-10-09T21:35:13.266Z,4.60
2022-10-09T21:37:41.677Z,3.63
2022-10-09T21:40:10.247Z,3.47
2022-10-09T21:42:38.540Z,4.33
2022-10-09T21:45:09.132Z,2.67
2022-10-09T21:47:37.412Z,3.77
2022-10-09T21:50:05.803Z,4.00
2022-10-09T21:52:34.008Z,2.97
2022-10-09T21:55:02.150Z,3.93
2022-10-09T21:57:30.305Z,3.87
2022-10-09T21:59:58.463Z,3.60
2022-10-09T22:02:27.648Z,5.67
2022-10-09T22:04:57.213Z,4.83
2022-10-09T22:07:26.250Z,3.93
2022-10-09T22:09:54.463Z,2.40
2022-10-09T22:12:22.740Z,3.30
2022-10-09T22:14:50.939Z,3.00
2022-10-09T22:17:19.238Z,5.27
2022-10-09T22:19:48.580Z,3.57
2022-10-09T22:22:16.847Z,3.27
2022-10-09T22:24:44.999Z,4.23
2022-10-09T22:27:13.404Z,2.87
2022-10-09T22:29:41.580Z,5.30
2022-10-09T22:32:10.338Z,4.17
2022-10-09T22:34:38.535Z,4.83
2022-10-09T22:37:07.749Z,5.30
2022-10-09T22:39:35.879Z,6.53
2022-10-09T22:42:04.033Z,3.10
2022-10-09T22:44:32.183Z,3.47
2022-10-09T22:47:00.818Z,2.67
2022-10-09T22:49:29.051Z,3.23
2022-10-09T22:51:57.307Z,4.33
2022-10-09T22:54:26.576Z,3.77
2022-10-09T22:56:55.002Z,3.63
2022-10-09T22:59:23.150Z,4.83
2022-10-09T23:01:53.377Z,4.93
2022-10-09T23:04:22.544Z,4.00
2022-10-09T23:06:52.552Z,4.30
2022-10-09T23:09:21.895Z,3.60
2022-10-09T23:11:51.238Z,5.27
2022-10-09T23:14:19.529Z,4.23
2022-10-09T23:16:47.832Z,4.47
2022-10-09T23:19:16.504Z,3.97
2022-10-09T23:21:48.208Z,5.57
2022-10-09T23:24:17.794Z,4.03
2022-10-09T23:26:46.984Z,10.07
2022-10-09T23:29:18.779Z,4.03
2022-10-09T23:31:47.007Z,11.47
2022-10-09T23:34:15.314Z,5.30
2022-10-09T23:36:43.467Z,6.43
2022-10-09T23:39:11.681Z,6.20
2022-10-09T23:41:39.969Z,4.73
2022-10-09T23:44:08.271Z,6.97
2022-10-09T23:46:38.388Z,4.30
2022-10-09T23:49:06.532Z,8.13
2022-10-09T23:51:35.264Z,4.33
2022-10-09T23:54:03.490Z,6.47
2022-10-09T23:56:33.115Z,6.00
2022-10-09T23:59:02.931Z,5.67
